CYXJ

Fort St John Airport

Fort St.John, British Columbia, Canada
METAR CYXJ 170700Z 23028G38KT 30SM SCT110 BKN230 02/M04 A2938 RMK AC3CI3 SLP981
Observed Flight Rules
Dec-17 @ 07:00 UTC (an hour ago) Visual Flight Rules
Wind Visibility Clouds
230° at 28 knots
 Gusting to 38 knots
30 miles
  • Scattered at 11,000' AGL
  • Broken at 23,000' AGL
Temperatures Readings
Current 2°C / 36°F
Dewpoint -4°C / 25°F
Humidity 65%
Altimeter 29.38" Hg
Pressure 998.1 hPa
Elevation 695
METAR CYXJ 170700Z 23028G38KT 30SM SCT110 BKN230 02/M04 A2938 RMK AC3CI3 SLP981
Observed Flight Rules
Dec-17 @ 07:00 UTC
(an hour ago)
VFR
Wind Visibility
230° at 28 knots
 Gusting to 38 knots
30 miles
Clouds
  • Scattered at 11,000' AGL
  • Broken at 23,000' AGL
Temperature Dewpoint
2°C / 36°F -4°C / 25°F
Humidity Altimeter Pressure
65% 29.38" Hg 998.1 hPa